Time;durP1;ratioP1;P1;durP2;ratioP2;P2;SDS_P1;SDS_P2;PMS_P1;PMS_P2;Temp;Humidity;BMP_temperature;BMP_pressure;BME280_temperature;BME280_humidity;BME280_pressure;Samples;Min_cycle;Max_cycle;Signal;HPM_P1;HPM_P2
2021/10/23 03:45:14;;;;;;;2.23;2.00;;;7.20;99.90;;;;;;6207083;22;20451;-95
2021/10/23 03:47:40;;;;;;;4.20;2.10;;;7.10;99.90;;;;;;6181796;23;20406;-94
2021/10/23 03:50:06;;;;;;;7.93;2.53;;;7.10;99.90;;;;;;6180214;23;21015;-94
2021/10/23 03:52:32;;;;;;;3.90;2.13;;;7.10;99.90;;;;;;6180122;23;20495;-94
2021/10/23 03:54:58;;;;;;;3.53;2.03;;;7.10;99.90;;;;;;6179177;23;20409;-94
2021/10/23 03:57:25;;;;;;;5.00;2.13;;;7.10;99.90;;;;;;6180198;23;20427;-94
2021/10/23 03:59:52;;;;;;;2.10;1.60;;;7.10;99.90;;;;;;6180904;23;20160;-94
2021/10/23 04:02:20;;;;;;;4.03;2.00;;;7.10;99.90;;;;;;6178325;23;20403;-93
2021/10/23 04:04:46;;;;;;;5.03;1.70;;;7.10;99.90;;;;;;6183238;23;20454;-94
2021/10/23 04:07:11;;;;;;;4.00;2.17;;;7.00;99.90;;;;;;6195399;23;20824;-95
2021/10/23 04:09:38;;;;;;;3.57;1.90;;;7.10;99.90;;;;;;6185570;23;20837;-94
2021/10/23 04:12:05;;;;;;;4.20;1.97;;;7.10;99.90;;;;;;6179548;23;20786;-92
2021/10/23 04:14:31;;;;;;;3.33;2.23;;;7.00;99.90;;;;;;6178791;23;20164;-93
2021/10/23 04:17:00;;;;;;;8.77;3.30;;;7.00;99.90;;;;;;6176169;23;20456;-92
2021/10/23 04:19:31;;;;;;;4.20;2.30;;;7.00;99.90;;;;;;6180169;23;20213;-94
2021/10/23 04:22:16;;;;;;;3.60;2.43;;;7.00;99.90;;;;;;6180625;23;20402;-93
2021/10/23 04:24:42;;;;;;;2.53;1.93;;;7.10;99.90;;;;;;6176447;23;20510;-90
2021/10/23 04:27:08;;;;;;;2.23;1.90;;;7.10;99.90;;;;;;6183600;23;20410;-90
2021/10/23 04:29:34;;;;;;;2.70;1.93;;;7.10;99.90;;;;;;6176676;23;20294;-89
2021/10/23 04:31:59;;;;;;;3.90;1.70;;;7.10;99.90;;;;;;6176718;23;20165;-88
2021/10/23 04:34:36;;;;;;;2.63;1.73;;;7.10;99.90;;;;;;6169984;23;20527;-89
2021/10/23 04:37:04;;;;;;;3.10;1.97;;;7.10;99.90;;;;;;6151983;23;20173;-88
2021/10/23 04:39:40;;;;;;;2.40;1.97;;;7.20;99.90;;;;;;6174216;23;20836;-87
2021/10/23 04:42:06;;;;;;;4.20;2.50;;;7.20;99.90;;;;;;6177127;23;20719;-86
2021/10/23 04:44:32;;;;;;;2.90;1.80;;;7.20;99.90;;;;;;6206149;23;20458;-87
2021/10/23 04:46:57;;;;;;;2.47;2.27;;;7.10;99.90;;;;;;6204647;23;20893;-89
2021/10/23 04:49:23;;;;;;;3.23;1.90;;;7.00;99.90;;;;;;6206320;23;20591;-89
2021/10/23 04:51:49;;;;;;;3.63;1.90;;;7.00;99.90;;;;;;6205195;23;20605;-88
2021/10/23 04:54:15;;;;;;;3.90;1.97;;;7.20;99.90;;;;;;6207038;23;20171;-89
2021/10/23 04:56:41;;;;;;;5.23;3.20;;;7.30;99.90;;;;;;6208703;23;20500;-90
2021/10/23 04:59:07;;;;;;;2.93;1.97;;;7.20;99.90;;;;;;6209313;23;20385;-90
2021/10/23 05:01:32;;;;;;;3.87;2.47;;;7.30;99.90;;;;;;6208158;23;20845;-90
2021/10/23 05:03:58;;;;;;;4.73;2.77;;;7.20;99.90;;;;;;6208517;23;20506;-90
2021/10/23 05:06:26;;;;;;;5.33;2.70;;;7.30;99.90;;;;;;6209502;23;20190;-90
2021/10/23 05:08:52;;;;;;;6.13;2.37;;;7.40;99.90;;;;;;6210828;23;20159;-91
2021/10/23 05:11:18;;;;;;;4.50;1.90;;;7.40;99.90;;;;;;6208873;23;20406;-89
2021/10/23 05:13:44;;;;;;;3.33;2.07;;;7.50;99.90;;;;;;6184358;23;20607;-91
2021/10/23 05:16:20;;;;;;;4.03;1.90;;;7.50;99.90;;;;;;6183632;23;20248;-91
2021/10/23 05:18:49;;;;;;;5.60;2.50;;;7.50;99.90;;;;;;6209134;23;20406;-89
2021/10/23 05:21:17;;;;;;;5.07;2.50;;;7.40;99.90;;;;;;6210098;23;20759;-90
2021/10/23 05:23:44;;;;;;;3.60;2.13;;;7.40;99.90;;;;;;6210272;23;20720;-90
2021/10/23 05:26:09;;;;;;;2.97;2.53;;;7.50;99.90;;;;;;6209837;23;20457;-90
2021/10/23 05:28:35;;;;;;;5.10;2.47;;;7.50;99.90;;;;;;6209416;23;20384;-90
2021/10/23 05:31:01;;;;;;;2.77;2.43;;;7.50;99.90;;;;;;6208959;23;20634;-90
2021/10/23 05:33:27;;;;;;;3.47;2.20;;;7.50;99.90;;;;;;6210371;23;20152;-91
2021/10/23 05:35:52;;;;;;;8.17;2.40;;;7.40;99.90;;;;;;6211162;23;20405;-91
2021/10/23 05:38:18;;;;;;;4.57;2.07;;;7.50;99.90;;;;;;6210881;23;20163;-90
2021/10/23 05:40:44;;;;;;;2.97;2.37;;;7.50;99.90;;;;;;6211743;23;20464;-91
2021/10/23 05:43:10;;;;;;;4.20;2.37;;;7.40;99.90;;;;;;6211641;23;20171;-91
2021/10/23 05:45:38;;;;;;;4.90;2.60;;;7.40;99.90;;;;;;6210139;23;20449;-88
2021/10/23 05:48:10;;;;;;;2.87;2.30;;;7.40;99.90;;;;;;6213960;23;20168;-93
2021/10/23 05:50:46;;;;;;;4.93;3.23;;;7.40;99.90;;;;;;6210281;23;20424;-92
2021/10/23 05:53:12;;;;;;;3.10;2.80;;;7.40;99.90;;;;;;6214382;23;20486;-91
2021/10/23 05:55:38;;;;;;;4.43;2.63;;;7.40;99.90;;;;;;6224034;23;20400;-89
2021/10/23 05:58:06;;;;;;;4.13;3.30;;;7.40;99.90;;;;;;6217369;23;20866;-90
2021/10/23 06:00:36;;;;;;;291.77;256.47;;;7.50;99.90;;;;;;6211430;23;20484;-91
2021/10/23 06:03:02;;;;;;;12.47;10.73;;;7.50;99.90;;;;;;6214215;23;20893;-91
2021/10/23 06:05:32;;;;;;;4.10;2.40;;;7.60;99.90;;;;;;6217915;23;20439;-92
2021/10/23 06:07:58;;;;;;;2.10;1.90;;;7.70;99.90;;;;;;6221001;23;20391;-92
2021/10/23 06:10:24;;;;;;;3.60;2.03;;;7.70;99.90;;;;;;6215817;23;20738;-93
2021/10/23 06:12:51;;;;;;;3.57;2.10;;;7.70;99.90;;;;;;6218122;23;20219;-96
2021/10/23 06:15:17;;;;;;;2.80;1.87;;;7.60;99.90;;;;;;6215006;23;20486;-95
2021/10/23 06:17:43;;;;;;;6.17;2.63;;;7.50;99.90;;;;;;6213488;23;20400;-91
2021/10/23 06:20:09;;;;;;;6.20;2.10;;;7.50;99.90;;;;;;6214226;23;20168;-93
2021/10/23 06:22:51;;;;;;;5.20;2.63;;;7.50;99.90;;;;;;6213946;23;20170;-95
2021/10/23 06:25:17;;;;;;;4.03;2.20;;;7.50;99.90;;;;;;6210101;23;20489;-94
2021/10/23 06:27:56;;;;;;;4.60;2.03;;;7.60;99.90;;;;;;6214551;23;20469;-95
2021/10/23 06:30:24;;;;;;;9.40;2.40;;;7.60;99.90;;;;;;6209108;23;20784;-92
2021/10/23 06:32:52;;;;;;;3.10;2.10;;;7.60;99.90;;;;;;6217824;23;20774;-92
2021/10/23 06:35:24;;;;;;;4.47;2.00;;;7.70;99.90;;;;;;6216433;23;20387;-94
2021/10/23 06:37:51;;;;;;;5.10;2.33;;;7.90;99.90;;;;;;6213621;23;20403;-92
2021/10/23 06:40:17;;;;;;;3.17;2.30;;;8.20;99.90;;;;;;6208886;23;20431;-91
2021/10/23 06:42:44;;;;;;;2.77;2.40;;;8.20;99.90;;;;;;6210484;23;20389;-90
2021/10/23 06:45:12;;;;;;;5.73;2.90;;;8.20;99.90;;;;;;6211247;23;20510;-91
2021/10/23 06:47:38;;;;;;;8.73;4.27;;;8.20;99.90;;;;;;6186231;23;20413;-92
2021/10/23 06:50:09;;;;;;;7.00;3.73;;;8.20;99.90;;;;;;6186550;23;20405;-91
2021/10/23 06:52:38;;;;;;;4.20;3.00;;;8.20;99.90;;;;;;6183839;23;20699;-91
2021/10/23 06:55:05;;;;;;;4.30;2.47;;;8.20;99.90;;;;;;6182817;23;20408;-91
2021/10/23 06:57:31;;;;;;;6.37;2.60;;;8.20;99.90;;;;;;6183357;23;20389;-91
2021/10/23 06:59:56;;;;;;;3.17;2.67;;;8.20;99.90;;;;;;6183501;23;20906;-89
2021/10/23 07:02:22;;;;;;;2.93;2.27;;;8.30;99.90;;;;;;6210032;23;20239;-89
2021/10/23 07:04:48;;;;;;;3.67;2.77;;;8.30;99.90;;;;;;6184011;23;20206;-91
2021/10/23 07:07:13;;;;;;;4.60;2.77;;;8.20;99.90;;;;;;6183835;23;20677;-88
2021/10/23 07:09:39;;;;;;;5.30;2.17;;;8.20;99.90;;;;;;6183726;23;20272;-89
2021/10/23 07:12:05;;;;;;;3.00;1.70;;;8.20;99.90;;;;;;6183584;23;20165;-91
2021/10/23 07:14:31;;;;;;;2.37;1.50;;;8.20;99.90;;;;;;6184441;23;20394;-90
2021/10/23 07:17:03;;;;;;;6.03;2.90;;;8.20;99.90;;;;;;6183370;23;20376;-90
2021/10/23 07:19:28;;;;;;;3.67;2.13;;;8.30;99.90;;;;;;6184366;23;20195;-90
2021/10/23 07:21:54;;;;;;;4.90;2.20;;;8.30;99.90;;;;;;6182791;23;20371;-91
2021/10/23 07:24:20;;;;;;;6.03;2.30;;;8.40;99.90;;;;;;6185723;23;20198;-91
2021/10/23 07:26:47;;;;;;;7.87;2.63;;;8.40;99.90;;;;;;6192973;23;20393;-92
2021/10/23 07:29:13;;;;;;;3.83;3.43;;;8.50;99.90;;;;;;6188167;23;20464;-92
2021/10/23 07:31:40;;;;;;;3.30;2.53;;;8.50;99.90;;;;;;6184728;23;20921;-92
2021/10/23 07:34:05;;;;;;;7.03;5.23;;;8.50;99.90;;;;;;6184361;23;20405;-91
2021/10/23 07:36:31;;;;;;;4.97;3.50;;;8.70;99.90;;;;;;6183105;23;20794;-91
2021/10/23 07:38:57;;;;;;;4.10;2.73;;;8.80;99.90;;;;;;6183724;23;20224;-91
2021/10/23 07:41:22;;;;;;;4.60;2.50;;;8.90;99.90;;;;;;6183670;23;20162;-91
2021/10/23 07:43:48;;;;;;;4.47;3.10;;;9.00;99.90;;;;;;6184203;23;20711;-91
2021/10/23 07:46:19;;;;;;;6.57;2.50;;;9.00;99.90;;;;;;6210014;23;20179;-91
2021/10/23 07:48:45;;;;;;;4.27;2.50;;;9.00;99.90;;;;;;6182862;23;20160;-91
2021/10/23 07:51:12;;;;;;;5.70;2.10;;;8.90;99.90;;;;;;6186168;23;20467;-92
2021/10/23 07:53:38;;;;;;;3.17;2.67;;;8.90;99.90;;;;;;6210002;23;20209;-91
2021/10/23 07:56:04;;;;;;;2.40;2.00;;;9.10;99.90;;;;;;6183511;23;20481;-91
2021/10/23 07:58:30;;;;;;;4.60;2.60;;;9.20;99.90;;;;;;6182869;23;20164;-91
2021/10/23 08:00:56;;;;;;;3.00;2.30;;;9.40;99.90;;;;;;6182149;23;20929;-91
2021/10/23 08:03:25;;;;;;;3.33;2.00;;;9.40;99.90;;;;;;6183415;23;20192;-92
2021/10/23 08:05:51;;;;;;;3.43;2.13;;;9.40;99.90;;;;;;6183595;23;20445;-91
2021/10/23 08:08:16;;;;;;;3.00;2.20;;;9.60;99.90;;;;;;6184748;23;20883;-93
2021/10/23 08:10:42;;;;;;;4.03;2.53;;;9.60;99.90;;;;;;6184122;23;20524;-91
2021/10/23 08:13:07;;;;;;;3.80;2.60;;;9.90;99.90;;;;;;6183771;23;20548;-92
2021/10/23 08:15:34;;;;;;;3.30;2.50;;;10.20;99.90;;;;;;6184028;23;20209;-91
2021/10/23 08:18:02;;;;;;;3.97;2.50;;;10.40;99.90;;;;;;6183849;23;20190;-92
2021/10/23 08:20:42;;;;;;;4.90;2.20;;;10.50;99.90;;;;;;6210631;23;20398;-93
2021/10/23 08:23:10;;;;;;;2.33;2.13;;;10.30;99.90;;;;;;6208033;23;20486;-91
2021/10/23 08:25:36;;;;;;;5.50;2.00;;;10.30;99.90;;;;;;6183824;23;20438;-91
2021/10/23 08:28:03;;;;;;;5.13;2.57;;;10.30;99.90;;;;;;6182481;23;20404;-91
2021/10/23 08:30:29;;;;;;;5.33;2.10;;;10.10;99.90;;;;;;6182684;23;20168;-91
2021/10/23 08:32:55;;;;;;;3.43;2.37;;;10.00;99.90;;;;;;6181928;23;20887;-91
2021/10/23 08:35:30;;;;;;;3.60;1.90;;;9.90;99.90;;;;;;6182669;23;20399;-91
2021/10/23 08:37:58;;;;;;;4.33;2.27;;;9.80;99.90;;;;;;6207901;23;20402;-92
2021/10/23 08:40:24;;;;;;;3.97;2.30;;;9.90;99.90;;;;;;6183804;23;20399;-92
2021/10/23 08:42:50;;;;;;;2.90;2.20;;;10.60;99.90;;;;;;6183334;23;20409;-89
2021/10/23 08:45:17;;;;;;;5.37;2.30;;;11.00;99.90;;;;;;6184927;23;20195;-91
2021/10/23 08:47:45;;;;;;;4.47;2.70;;;11.00;99.90;;;;;;6208347;23;20206;-91
2021/10/23 08:50:24;;;;;;;5.03;2.60;;;11.20;99.90;;;;;;6208208;23;20580;-90
2021/10/23 08:52:55;;;;;;;3.40;2.50;;;11.30;99.90;;;;;;6208203;23;20426;-91
2021/10/23 08:55:21;;;;;;;2.67;2.37;;;11.50;99.90;;;;;;6228407;23;20494;-91
2021/10/23 08:57:47;;;;;;;4.53;2.30;;;11.80;99.50;;;;;;6220283;23;20754;-91
2021/10/23 09:00:14;;;;;;;4.30;2.40;;;12.20;99.60;;;;;;6210113;23;20399;-93
2021/10/23 09:02:40;;;;;;;3.40;2.70;;;12.10;99.20;;;;;;6209258;23;20960;-92
2021/10/23 09:05:07;;;;;;;4.03;1.93;;;12.00;99.00;;;;;;6208403;23;20434;-92
2021/10/23 09:07:33;;;;;;;6.03;2.17;;;12.30;98.70;;;;;;6207410;23;20464;-93
2021/10/23 09:10:05;;;;;;;6.13;2.87;;;12.50;98.00;;;;;;6208223;23;20698;-91
2021/10/23 09:12:37;;;;;;;4.60;2.20;;;12.50;98.30;;;;;;6208697;23;20869;-92
2021/10/23 09:15:17;;;;;;;3.50;1.83;;;12.70;97.90;;;;;;6208523;23;20449;-89
2021/10/23 09:18:02;;;;;;;7.10;2.90;;;12.90;97.70;;;;;;6204385;23;20393;-88
2021/10/23 09:20:30;;;;;;;5.90;2.30;;;11.90;98.70;;;;;;6204117;23;20437;-91
2021/10/23 09:22:58;;;;;;;6.63;2.37;;;12.20;99.10;;;;;;6207512;23;20391;-88
2021/10/23 09:25:33;;;;;;;2.87;2.30;;;12.60;98.70;;;;;;6207765;23;20528;-89
2021/10/23 09:28:13;;;;;;;4.70;3.00;;;12.60;97.90;;;;;;6208454;23;20394;-89
2021/10/23 09:30:41;;;;;;;3.73;2.40;;;12.50;98.40;;;;;;6210747;23;20782;-89
2021/10/23 09:33:27;;;;;;;6.53;3.33;;;12.90;98.70;;;;;;6209276;23;20394;-90
2021/10/23 09:36:00;;;;;;;4.00;3.00;;;13.10;97.90;;;;;;6208708;23;20422;-91
2021/10/23 09:38:30;;;;;;;3.63;3.10;;;13.30;98.10;;;;;;6209791;23;20426;-89
2021/10/23 09:41:11;;;;;;;3.77;3.27;;;13.60;98.20;;;;;;6209491;23;20723;-89
2021/10/23 09:43:37;;;;;;;5.43;3.13;;;13.80;98.30;;;;;;6209730;23;20390;-89
2021/10/23 09:46:06;;;;;;;3.77;3.37;;;14.00;98.50;;;;;;6209207;23;20446;-87
2021/10/23 09:48:43;;;;;;;4.70;3.50;;;14.00;97.50;;;;;;6208878;23;20168;-88
2021/10/23 09:51:22;;;;;;;5.10;3.70;;;14.10;97.40;;;;;;6209371;23;20551;-88
2021/10/23 09:53:52;;;;;;;5.57;3.53;;;14.30;96.90;;;;;;6210363;23;20390;-88
2021/10/23 09:56:38;;;;;;;7.20;5.50;;;14.60;96.10;;;;;;6211951;23;20465;-90
2021/10/23 09:59:08;;;;;;;8.50;6.50;;;14.50;97.50;;;;;;6211669;23;20382;-88
2021/10/23 10:01:42;;;;;;;3.40;3.10;;;14.70;97.10;;;;;;6210409;23;20448;-91
2021/10/23 10:04:11;;;;;;;8.50;3.80;;;14.70;95.70;;;;;;6210647;23;20434;-89
2021/10/23 10:06:41;;;;;;;5.83;3.20;;;14.80;95.90;;;;;;6210829;23;20395;-90
2021/10/23 10:09:08;;;;;;;4.70;3.20;;;14.70;95.50;;;;;;6209849;23;20394;-89
2021/10/23 10:11:36;;;;;;;4.50;3.53;;;15.00;94.90;;;;;;6209534;23;20395;-89
2021/10/23 10:14:05;;;;;;;4.30;3.57;;;15.40;95.50;;;;;;6209728;23;20849;-88
2021/10/23 10:16:32;;;;;;;4.10;3.40;;;15.60;93.50;;;;;;6210758;23;20398;-88
2021/10/23 10:18:58;;;;;;;4.47;3.27;;;15.10;94.10;;;;;;6210079;23;20865;-90
2021/10/23 10:21:24;;;;;;;3.83;3.00;;;14.80;94.40;;;;;;6210409;23;20445;-91
2021/10/23 10:23:57;;;;;;;3.47;2.73;;;15.10;93.70;;;;;;6217017;23;20167;-90
2021/10/23 10:26:34;;;;;;;2.70;2.50;;;15.20;94.00;;;;;;6222553;23;20514;-89
2021/10/23 10:29:06;;;;;;;3.70;2.43;;;15.00;93.10;;;;;;6210811;23;20398;-88
2021/10/23 10:42:51;;;;;;;6.40;3.70;;;13.30;96.50;;;;;;6211979;23;20765;-90
2021/10/23 10:45:38;;;;;;;4.63;2.90;;;13.00;97.80;;;;;;6207881;23;20446;-89
2021/10/23 10:48:36;;;;;;;3.40;2.70;;;12.70;98.00;;;;;;6209499;23;20383;-90
2021/10/23 10:51:05;;;;;;;5.40;2.77;;;12.40;98.00;;;;;;6209427;23;20398;-89
2021/10/23 10:53:45;;;;;;;5.53;2.60;;;12.20;98.90;;;;;;6209042;23;20387;-89
2021/10/23 10:56:13;;;;;;;4.23;2.50;;;12.10;99.20;;;;;;6208319;23;20394;-89
2021/10/23 10:58:47;;;;;;;3.93;2.13;;;11.90;99.50;;;;;;6209601;23;20415;-90
2021/10/23 11:01:32;;;;;;;5.40;2.30;;;11.70;99.50;;;;;;6210925;23;20405;-90
2021/10/23 11:03:58;;;;;;;4.50;2.23;;;11.50;99.60;;;;;;6206188;23;20407;-90
2021/10/23 11:06:38;;;;;;;4.23;2.10;;;11.60;99.90;;;;;;6209213;23;20437;-89
2021/10/23 11:09:08;;;;;;;4.17;1.90;;;12.40;98.40;;;;;;6212966;23;20242;-89
2021/10/23 11:11:49;;;;;;;3.27;2.13;;;13.60;98.90;;;;;;6210036;23;20442;-91
2021/10/23 11:14:21;;;;;;;1.90;1.70;;;14.70;95.90;;;;;;6209097;23;20407;-91
2021/10/23 11:16:50;;;;;;;4.20;2.13;;;15.50;93.00;;;;;;6209159;23;20410;-91
2021/10/23 11:19:20;;;;;;;2.73;1.60;;;16.20;88.70;;;;;;6207492;23;20426;-90
2021/10/23 11:21:48;;;;;;;4.47;1.40;;;16.60;86.90;;;;;;6208787;23;20726;-91
2021/10/23 11:24:14;;;;;;;3.67;2.20;;;16.90;85.60;;;;;;6209164;23;20488;-90
2021/10/23 11:26:48;;;;;;;2.70;2.10;;;17.00;90.70;;;;;;6208568;23;21040;-89
2021/10/23 11:29:27;;;;;;;1.83;1.73;;;17.10;88.20;;;;;;6209642;23;20618;-90
2021/10/23 11:31:54;;;;;;;2.70;2.00;;;17.00;89.50;;;;;;6208773;23;20904;-91
2021/10/23 11:34:32;;;;;;;3.10;2.30;;;16.90;87.30;;;;;;6208133;23;20399;-90
2021/10/23 11:37:04;;;;;;;3.60;2.13;;;17.20;87.70;;;;;;6208509;23;20401;-90
2021/10/23 11:39:34;;;;;;;3.13;2.13;;;17.10;90.10;;;;;;6208959;23;20481;-89
2021/10/23 11:42:18;;;;;;;6.47;2.63;;;17.60;88.40;;;;;;6208689;23;20383;-89
2021/10/23 11:44:44;;;;;;;2.50;2.00;;;18.10;88.90;;;;;;6208045;23;20449;-89
2021/10/23 11:47:26;;;;;;;4.30;2.27;;;17.80;87.80;;;;;;6183435;23;20722;-90
2021/10/23 11:49:57;;;;;;;3.33;2.27;;;16.90;85.30;;;;;;6183869;23;20872;-89
2021/10/23 11:52:36;;;;;;;2.30;1.63;;;15.60;88.70;;;;;;6183364;23;20447;-91
2021/10/23 11:55:03;;;;;;;3.10;2.13;;;15.00;90.30;;;;;;6192417;23;20399;-87
2021/10/23 11:57:44;;;;;;;2.37;1.70;;;14.70;90.40;;;;;;6195841;23;20387;-89
2021/10/23 12:00:20;;;;;;;4.80;2.00;;;14.30;90.60;;;;;;6184374;23;20466;-89
2021/10/23 12:03:07;;;;;;;2.13;1.90;;;13.80;91.90;;;;;;6183725;23;20398;-87
2021/10/23 12:05:36;;;;;;;2.67;1.87;;;13.60;92.60;;;;;;6182151;23;20439;-88
2021/10/23 12:08:29;;;;;;;2.80;1.70;;;13.20;92.00;;;;;;6183581;23;20391;-88
2021/10/23 12:11:16;;;;;;;2.53;2.10;;;13.10;92.80;;;;;;6183502;23;20464;-88
2021/10/23 12:13:53;;;;;;;4.47;2.13;;;13.20;93.70;;;;;;6182453;23;20429;-88
2021/10/23 12:16:42;;;;;;;2.97;1.67;;;13.40;94.80;;;;;;6183983;23;20433;-88
2021/10/23 12:19:12;;;;;;;3.10;1.70;;;13.50;93.30;;;;;;6183213;23;20771;-89
2021/10/23 12:21:42;;;;;;;3.57;2.00;;;13.70;92.90;;;;;;6182923;23;20888;-89
2021/10/23 12:24:13;;;;;;;3.30;1.93;;;14.00;93.10;;;;;;6182964;23;20474;-89
2021/10/23 12:26:38;;;;;;;2.27;2.07;;;14.30;92.00;;;;;;6183961;23;20438;-89
2021/10/23 12:29:13;;;;;;;3.43;1.93;;;14.20;92.00;;;;;;6183198;23;20393;-89
2021/10/23 12:31:58;;;;;;;2.40;2.20;;;13.90;92.10;;;;;;6183684;23;20247;-89
2021/10/23 12:34:47;;;;;;;2.00;1.70;;;13.70;92.30;;;;;;6183431;23;20784;-89
2021/10/23 12:37:13;;;;;;;2.10;1.90;;;14.30;92.00;;;;;;6184096;23;20753;-90
2021/10/23 12:43:09;;;;;;;5.43;2.20;;;14.00;92.50;;;;;;6204683;23;20167;-89
2021/10/23 12:45:44;;;;;;;2.30;1.77;;;13.60;93.10;;;;;;6189634;23;20466;-88
2021/10/23 12:48:12;;;;;;;3.00;1.73;;;13.60;93.20;;;;;;6205958;23;20398;-89
2021/10/23 12:50:42;;;;;;;2.50;1.83;;;13.40;92.20;;;;;;6208059;23;20413;-89
2021/10/23 12:53:08;;;;;;;2.53;1.70;;;13.30;93.10;;;;;;6208572;23;20485;-90
2021/10/23 12:55:35;;;;;;;1.40;1.30;;;13.40;92.20;;;;;;6208809;23;20399;-91
2021/10/23 12:58:03;;;;;;;3.50;1.77;;;13.40;92.00;;;;;;6208879;23;20464;-91
2021/10/23 13:00:48;;;;;;;2.43;1.97;;;13.70;92.00;;;;;;6208174;23;20869;-90
2021/10/23 13:03:37;;;;;;;4.67;2.37;;;13.90;91.50;;;;;;6209861;23;20943;-90
2021/10/23 13:06:10;;;;;;;2.63;1.80;;;13.80;91.80;;;;;;6210495;23;20461;-90
2021/10/23 13:08:39;;;;;;;3.10;2.03;;;13.50;91.40;;;;;;6210498;23;20395;-90
2021/10/23 13:11:05;;;;;;;3.80;2.47;;;13.50;92.40;;;;;;6209606;23;20409;-89
2021/10/23 13:13:30;;;;;;;2.93;2.07;;;13.90;91.90;;;;;;6210041;23;20399;-90
2021/10/23 13:15:56;;;;;;;3.50;1.90;;;13.90;91.60;;;;;;6209236;23;20239;-90
2021/10/23 13:18:22;;;;;;;2.93;1.63;;;13.50;92.10;;;;;;6210072;23;20504;-90
2021/10/23 13:20:47;;;;;;;2.70;1.63;;;13.30;91.40;;;;;;6210828;23;20167;-91
2021/10/23 13:23:13;;;;;;;3.30;3.00;;;13.20;92.40;;;;;;6213604;23;20163;-89
2021/10/23 13:25:39;;;;;;;2.30;2.10;;;13.00;92.90;;;;;;6223721;23;20539;-89
2021/10/23 13:28:04;;;;;;;3.73;2.40;;;12.90;92.60;;;;;;6211996;23;20174;-89
2021/10/23 13:30:32;;;;;;;3.83;2.30;;;12.90;93.00;;;;;;6209947;23;20170;-90
2021/10/23 13:32:57;;;;;;;2.47;2.10;;;12.80;93.10;;;;;;6210291;23;20163;-89
2021/10/23 13:35:23;;;;;;;4.17;2.40;;;12.60;93.50;;;;;;6211357;23;20465;-89
2021/10/23 13:37:49;;;;;;;4.03;2.70;;;12.60;93.90;;;;;;6210090;23;20475;-88
2021/10/23 13:40:15;;;;;;;4.63;3.00;;;12.50;93.90;;;;;;6206195;23;20532;-90
2021/10/23 13:42:41;;;;;;;2.83;2.33;;;12.60;94.60;;;;;;6210635;23;20168;-89
2021/10/23 13:45:07;;;;;;;3.27;2.43;;;12.70;93.60;;;;;;6209230;23;20776;-89
2021/10/23 13:47:33;;;;;;;3.23;2.20;;;12.70;93.10;;;;;;6209355;23;20383;-90
2021/10/23 13:49:59;;;;;;;3.73;2.43;;;12.70;93.30;;;;;;6211537;23;20397;-89
2021/10/23 13:52:25;;;;;;;4.83;3.37;;;12.60;94.20;;;;;;6210384;23;20167;-90
2021/10/23 13:54:51;;;;;;;3.40;2.70;;;12.50;94.10;;;;;;6209910;23;20163;-89
2021/10/23 13:57:16;;;;;;;3.90;2.50;;;12.50;93.60;;;;;;6211713;23;20394;-90
2021/10/23 13:59:42;;;;;;;2.83;2.40;;;12.60;93.50;;;;;;6210734;23;20277;-90
2021/10/23 14:02:08;;;;;;;2.80;2.00;;;12.70;94.10;;;;;;6210040;23;20155;-90
2021/10/23 14:04:33;;;;;;;5.70;2.33;;;12.90;93.50;;;;;;6208923;23;20191;-90
2021/10/23 14:07:09;;;;;;;1.77;1.67;;;13.00;93.40;;;;;;6210012;23;20536;-90
2021/10/23 14:09:34;;;;;;;4.20;1.90;;;12.90;93.20;;;;;;6207779;23;20163;-91
2021/10/23 14:12:00;;;;;;;2.50;1.93;;;12.80;93.60;;;;;;6209742;23;20394;-90
2021/10/23 14:14:26;;;;;;;2.53;1.60;;;12.50;93.50;;;;;;6208586;23;20438;-90
2021/10/23 14:16:52;;;;;;;3.73;1.53;;;12.50;93.90;;;;;;6208485;23;20175;-91
2021/10/23 14:19:17;;;;;;;2.33;1.83;;;12.60;93.80;;;;;;6210107;23;20255;-89
2021/10/23 14:21:43;;;;;;;3.47;1.90;;;12.50;94.60;;;;;;6208810;23;20163;-90
2021/10/23 14:24:09;;;;;;;3.40;2.07;;;12.40;94.90;;;;;;6209464;23;20175;-90
2021/10/23 14:26:35;;;;;;;2.77;1.93;;;12.50;95.30;;;;;;6209033;23;20594;-90
2021/10/23 14:29:04;;;;;;;2.80;1.70;;;12.50;95.50;;;;;;6209579;23;20227;-91
2021/10/23 14:31:30;;;;;;;4.90;2.20;;;12.80;96.20;;;;;;6209000;23;20434;-90
2021/10/23 14:33:56;;;;;;;4.00;1.70;;;13.00;95.90;;;;;;6208536;23;20720;-89
2021/10/23 14:36:23;;;;;;;1.80;1.53;;;13.00;93.20;;;;;;6209286;23;20409;-90
2021/10/23 14:38:49;;;;;;;3.57;1.80;;;13.30;93.90;;;;;;6209328;23;20186;-90
2021/10/23 14:41:15;;;;;;;2.77;1.60;;;13.60;92.90;;;;;;6209261;23;20432;-90
2021/10/23 14:43:41;;;;;;;3.60;1.60;;;13.50;93.00;;;;;;6209557;23;20399;-91
2021/10/23 14:46:08;;;;;;;3.87;2.03;;;13.80;92.00;;;;;;6210203;23;20469;-92
2021/10/23 14:48:34;;;;;;;2.97;1.70;;;13.60;92.50;;;;;;6214695;23;20251;-92
2021/10/23 14:53:33;;;;;;;2.43;1.90;;;13.20;93.10;;;;;;6224612;23;20144;-91
2021/10/23 14:55:58;;;;;;;2.60;1.73;;;13.00;93.70;;;;;;6228687;23;20397;-92
2021/10/23 14:58:30;;;;;;;4.93;1.63;;;12.50;93.80;;;;;;6224308;23;20168;-92
2021/10/23 15:00:55;;;;;;;3.07;1.50;;;12.20;94.40;;;;;;6216696;23;20175;-93
2021/10/23 15:03:27;;;;;;;1.80;1.50;;;12.10;94.20;;;;;;6215323;23;20383;-92
2021/10/23 15:05:54;;;;;;;2.83;1.60;;;11.90;94.80;;;;;;6211141;23;20187;-91
2021/10/23 15:08:20;;;;;;;2.60;2.00;;;11.90;95.00;;;;;;6211565;23;20398;-93
2021/10/23 15:10:46;;;;;;;2.87;1.63;;;11.90;94.90;;;;;;6211266;23;20175;-93
2021/10/23 15:13:11;;;;;;;6.30;2.57;;;11.80;95.30;;;;;;6213202;23;20603;-88
2021/10/23 15:15:38;;;;;;;5.50;1.47;;;11.90;95.50;;;;;;6207604;23;20191;-88
2021/10/23 15:18:05;;;;;;;2.97;1.50;;;11.80;95.30;;;;;;6206654;23;20727;-87
2021/10/23 15:20:32;;;;;;;3.43;2.00;;;11.60;95.40;;;;;;6205499;23;20558;-87
2021/10/23 15:22:58;;;;;;;2.00;1.63;;;11.50;96.50;;;;;;6207476;23;20429;-87
2021/10/23 15:25:24;;;;;;;2.30;1.60;;;11.40;96.70;;;;;;6206342;23;20446;-86
2021/10/23 15:27:50;;;;;;;2.10;1.73;;;11.20;96.70;;;;;;6206567;23;20449;-87
2021/10/23 15:30:23;;;;;;;1.63;1.43;;;11.10;96.90;;;;;;6207905;23;20444;-90
2021/10/23 15:32:53;;;;;;;2.70;1.50;;;11.00;96.80;;;;;;6211375;23;20186;-88
2021/10/23 15:35:29;;;;;;;1.87;1.73;;;11.00;96.90;;;;;;6207480;23;20406;-88
2021/10/23 15:37:55;;;;;;;3.67;1.77;;;10.80;97.00;;;;;;6207741;23;20395;-89
2021/10/23 15:40:28;;;;;;;3.03;1.80;;;10.70;97.40;;;;;;6206602;23;20399;-89
2021/10/23 15:42:54;;;;;;;1.90;1.80;;;10.50;97.60;;;;;;6209440;23;20393;-89
2021/10/23 15:45:20;;;;;;;3.60;1.73;;;10.50;98.00;;;;;;6210022;23;20506;-88
2021/10/23 15:47:45;;;;;;;3.73;1.73;;;10.40;98.50;;;;;;6209391;23;20398;-89
2021/10/23 15:50:11;;;;;;;4.50;2.20;;;10.30;99.20;;;;;;6207612;23;20174;-89
2021/10/23 15:52:38;;;;;;;1.97;1.57;;;10.10;99.60;;;;;;6208873;23;20168;-89
2021/10/23 15:55:06;;;;;;;2.50;1.67;;;10.00;99.90;;;;;;6207652;23;20493;-89
2021/10/23 15:57:41;;;;;;;1.80;1.40;;;9.90;99.90;;;;;;6208996;23;20433;-88
2021/10/23 16:00:10;;;;;;;1.60;1.50;;;9.80;99.90;;;;;;6207943;23;20728;-89
2021/10/23 16:02:39;;;;;;;3.00;1.70;;;9.70;99.90;;;;;;6206917;23;20160;-89
2021/10/23 16:05:19;;;;;;;2.10;1.47;;;9.60;99.90;;;;;;6208512;23;20836;-89
2021/10/23 16:07:45;;;;;;;2.33;1.70;;;9.50;99.90;;;;;;6207555;23;20399;-89
2021/10/23 16:10:13;;;;;;;3.47;2.10;;;9.30;99.90;;;;;;6207337;23;20470;-89
2021/10/23 16:12:42;;;;;;;3.70;2.23;;;9.20;99.90;;;;;;6209962;23;20167;-88
2021/10/23 16:15:08;;;;;;;2.00;1.33;;;9.00;99.90;;;;;;6209831;23;20441;-89
2021/10/23 16:17:34;;;;;;;2.27;1.53;;;8.90;99.90;;;;;;6209419;23;20730;-89
2021/10/23 16:20:00;;;;;;;4.03;2.90;;;8.80;99.90;;;;;;6207978;23;20386;-89
2021/10/23 16:22:26;;;;;;;3.40;1.80;;;8.50;99.90;;;;;;6183189;23;20666;-90
2021/10/23 16:24:51;;;;;;;3.70;2.13;;;8.40;99.90;;;;;;6225729;23;21027;-89
2021/10/23 16:27:21;;;;;;;2.20;1.80;;;8.30;99.90;;;;;;6214318;23;20167;-89
2021/10/23 16:29:49;;;;;;;3.80;1.87;;;8.20;99.90;;;;;;6207775;23;20430;-89
2021/10/23 16:32:15;;;;;;;2.40;1.90;;;8.10;99.90;;;;;;6207203;23;20425;-90
2021/10/23 16:34:41;;;;;;;2.60;1.73;;;8.10;99.90;;;;;;6207722;23;20386;-89
2021/10/23 16:37:07;;;;;;;2.87;1.90;;;8.10;99.90;;;;;;6207611;23;20391;-90
2021/10/23 16:39:33;;;;;;;2.60;1.80;;;8.00;99.90;;;;;;6206153;23;20478;-88
2021/10/23 16:42:01;;;;;;;2.90;1.60;;;8.10;99.90;;;;;;6206271;23;20163;-89
2021/10/23 16:44:30;;;;;;;5.40;1.93;;;8.00;99.90;;;;;;6208455;23;20518;-91
2021/10/23 16:46:55;;;;;;;2.80;1.60;;;7.80;99.90;;;;;;6206863;23;20202;-92
2021/10/23 16:49:21;;;;;;;4.00;2.30;;;7.70;99.90;;;;;;6207494;23;20459;-91
2021/10/23 16:51:54;;;;;;;3.40;2.10;;;7.50;99.90;;;;;;6207703;23;20166;-91
2021/10/23 16:54:21;;;;;;;4.47;1.70;;;7.50;99.90;;;;;;6207160;23;20254;-92
2021/10/23 16:56:52;;;;;;;6.87;5.77;;;7.40;99.90;;;;;;6207648;23;20402;-92
2021/10/23 16:59:19;;;;;;;3.80;3.27;;;7.40;99.90;;;;;;6183937;23;20410;-90
2021/10/23 17:01:52;;;;;;;2.97;2.67;;;7.40;99.90;;;;;;6208291;23;20403;-91